Time;durP1;ratioP1;P1;durP2;ratioP2;P2;SDS_P1;SDS_P2;PMS_P1;PMS_P2;Temp;Humidity;BMP_temperature;BMP_pressure;BME280_temperature;BME280_humidity;BME280_pressure;Samples;Min_cycle;Max_cycle;Signal;HPM_P1;HPM_P2
2022/07/25 00:01:21;;;;;;;21.73;14.90;;;26.40;99.90;;;;;;1841357;75;21103;-77
2022/07/25 00:03:52;;;;;;;21.23;14.55;;;26.50;99.90;;;;;;1853667;76;21819;-78
2022/07/25 00:06:29;;;;;;;16.32;12.75;;;26.50;99.90;;;;;;1849275;75;21279;-78
2022/07/25 00:08:57;;;;;;;14.47;12.23;;;26.50;99.90;;;;;;1846949;76;21067;-78
2022/07/25 00:11:28;;;;;;;16.45;12.15;;;26.60;99.90;;;;;;1860323;75;21175;-77
2022/07/25 00:13:59;;;;;;;14.55;11.22;;;26.60;99.90;;;;;;1852870;76;21132;-78
2022/07/25 00:16:30;;;;;;;16.27;10.88;;;26.60;99.90;;;;;;1856799;75;21213;-78
2022/07/25 00:19:01;;;;;;;16.62;9.93;;;26.60;99.90;;;;;;1854802;76;21723;-79
2022/07/25 00:21:32;;;;;;;14.55;10.55;;;26.70;99.90;;;;;;1856726;75;21139;-79
2022/07/25 00:24:06;;;;;;;17.23;10.45;;;26.70;99.90;;;;;;1870427;75;21643;-78
2022/07/25 00:26:38;;;;;;;13.55;9.58;;;26.70;99.90;;;;;;1854549;76;21560;-78
2022/07/25 00:29:09;;;;;;;14.35;10.10;;;26.80;99.90;;;;;;1822032;77;21167;-78
2022/07/25 00:31:40;;;;;;;13.13;10.75;;;26.80;99.90;;;;;;1851604;75;21223;-78
2022/07/25 00:34:11;;;;;;;11.75;9.68;;;26.90;99.90;;;;;;1858992;75;21156;-79
2022/07/25 00:36:42;;;;;;;17.67;9.73;;;26.90;99.90;;;;;;1866087;76;21089;-79
2022/07/25 00:39:13;;;;;;;11.90;8.73;;;26.90;99.90;;;;;;1853447;76;21276;-78
2022/07/25 00:41:44;;;;;;;13.78;9.13;;;26.90;99.90;;;;;;1844926;76;21178;-79
2022/07/25 00:44:17;;;;;;;13.83;8.83;;;27.00;99.90;;;;;;1853398;75;21120;-78
2022/07/25 00:46:49;;;;;;;16.73;9.80;;;27.00;99.90;;;;;;1859421;75;21742;-78
2022/07/25 00:49:20;;;;;;;17.02;9.90;;;27.10;99.90;;;;;;1845438;75;21170;-78
2022/07/25 00:51:53;;;;;;;14.60;9.73;;;27.10;99.90;;;;;;1858498;75;21241;-79
2022/07/25 00:54:24;;;;;;;14.15;9.63;;;27.20;99.90;;;;;;1855590;75;21173;-79
2022/07/25 00:56:55;;;;;;;15.88;9.85;;;27.20;99.90;;;;;;1844894;76;21175;-78
2022/07/25 00:59:26;;;;;;;12.68;8.93;;;27.20;99.90;;;;;;1859113;75;21147;-79
2022/07/25 01:01:57;;;;;;;13.10;8.65;;;27.30;99.90;;;;;;1838945;76;21190;-79
2022/07/25 01:04:29;;;;;;;13.05;8.98;;;27.30;99.90;;;;;;1846055;75;21215;-79
2022/07/25 01:07:01;;;;;;;12.47;8.48;;;27.40;99.90;;;;;;1858423;76;21179;-79
2022/07/25 01:09:32;;;;;;;15.23;9.50;;;27.50;99.90;;;;;;1824429;77;21173;-79
2022/07/25 01:12:03;;;;;;;13.80;8.75;;;27.50;99.90;;;;;;1825880;77;21677;-78
2022/07/25 01:14:34;;;;;;;13.72;8.70;;;27.60;99.90;;;;;;1799257;78;21263;-78
2022/07/25 01:17:05;;;;;;;13.98;7.72;;;27.70;99.90;;;;;;1831799;76;21162;-79
2022/07/25 01:19:39;;;;;;;12.82;7.60;;;27.80;99.90;;;;;;1797371;77;21169;-79
2022/07/25 01:22:10;;;;;;;14.10;8.48;;;27.80;99.90;;;;;;1844608;76;21163;-79
2022/07/25 01:24:42;;;;;;;10.85;8.13;;;27.90;99.90;;;;;;1851591;76;21069;-78
2022/07/25 01:27:13;;;;;;;10.28;7.78;;;27.90;99.90;;;;;;1842856;76;21158;-80
2022/07/25 01:29:45;;;;;;;11.33;6.67;;;28.00;99.90;;;;;;1850274;76;21084;-79
2022/07/25 01:32:16;;;;;;;8.90;6.20;;;28.10;99.90;;;;;;1844068;76;21183;-78
2022/07/25 01:34:47;;;;;;;7.25;5.58;;;28.20;99.90;;;;;;1847608;76;21685;-79
2022/07/25 01:37:18;;;;;;;8.55;5.67;;;28.20;99.90;;;;;;1851076;76;21691;-79
2022/07/25 01:39:52;;;;;;;12.75;6.45;;;28.40;99.90;;;;;;1847149;76;21155;-78
2022/07/25 01:42:23;;;;;;;9.48;5.55;;;28.50;99.90;;;;;;1844713;76;21097;-69
2022/07/25 01:44:54;;;;;;;12.55;6.20;;;28.50;99.90;;;;;;1808418;78;21122;-71
2022/07/25 01:47:25;;;;;;;9.18;5.67;;;28.60;99.90;;;;;;1785329;79;21276;-72
2022/07/25 01:49:56;;;;;;;7.80;5.60;;;28.70;99.90;;;;;;1814615;77;21200;-71
2022/07/25 01:52:26;;;;;;;9.20;5.75;;;28.70;99.90;;;;;;1797574;78;21277;-71
2022/07/25 01:54:57;;;;;;;9.98;5.47;;;28.80;99.90;;;;;;1852337;75;21233;-71
2022/07/25 01:57:29;;;;;;;12.10;5.92;;;28.90;99.90;;;;;;1849722;76;21111;-71
2022/07/25 02:00:00;;;;;;;8.38;5.50;;;29.00;99.90;;;;;;1848886;76;21193;-72
2022/07/25 02:02:31;;;;;;;8.00;5.58;;;29.10;99.90;;;;;;1851826;76;21141;-71
2022/07/25 02:05:03;;;;;;;11.48;5.90;;;29.30;99.90;;;;;;1856715;75;21276;-70
2022/07/25 02:07:34;;;;;;;8.15;5.15;;;29.30;99.90;;;;;;1847729;76;21172;-70
2022/07/25 02:10:07;;;;;;;7.37;5.58;;;29.50;99.90;;;;;;1850218;76;21582;-70
2022/07/25 02:12:38;;;;;;;10.03;5.75;;;29.60;99.90;;;;;;1779257;79;21813;-70
2022/07/25 02:15:09;;;;;;;7.62;5.33;;;29.70;99.90;;;;;;1850832;75;21127;-71
2022/07/25 02:17:40;;;;;;;7.35;4.78;;;29.80;99.90;;;;;;1849426;76;21149;-69
2022/07/25 02:20:11;;;;;;;10.13;4.10;;;30.00;99.90;;;;;;1798519;78;21633;-71
2022/07/25 02:22:42;;;;;;;7.53;3.98;;;30.10;99.90;;;;;;1858616;76;21122;-72
2022/07/25 02:25:14;;;;;;;6.55;3.60;;;30.20;99.90;;;;;;1849575;76;21142;-71
2022/07/25 02:27:45;;;;;;;10.00;4.15;;;30.30;99.90;;;;;;1859968;76;21205;-72
2022/07/25 02:30:16;;;;;;;10.55;4.95;;;30.40;99.90;;;;;;1808429;78;21656;-71
2022/07/25 02:32:48;;;;;;;8.18;3.90;;;30.40;99.90;;;;;;1861127;76;21602;-71
2022/07/25 02:35:22;;;;;;;9.93;3.70;;;30.50;99.90;;;;;;1861493;75;21114;-71
2022/07/25 02:37:53;;;;;;;6.97;3.72;;;30.50;99.90;;;;;;1858381;75;21107;-71
2022/07/25 02:40:25;;;;;;;8.45;3.98;;;30.50;99.90;;;;;;1858229;75;21150;-70
2022/07/25 02:42:56;;;;;;;4.75;3.80;;;30.50;99.90;;;;;;1853796;76;21222;-71
2022/07/25 02:45:27;;;;;;;5.50;3.85;;;30.50;99.90;;;;;;1873938;76;21242;-70
2022/07/25 02:47:58;;;;;;;6.53;4.78;;;30.30;99.90;;;;;;1863612;76;21188;-70
2022/07/25 02:50:28;;;;;;;7.78;4.25;;;30.20;99.90;;;;;;1843322;76;21098;-70
2022/07/25 02:52:59;;;;;;;9.50;5.05;;;30.20;99.90;;;;;;1858735;75;21688;-70
2022/07/25 02:55:31;;;;;;;7.80;4.30;;;30.20;99.90;;;;;;1870001;75;22420;-71
2022/07/25 02:58:02;;;;;;;6.65;4.03;;;30.20;99.90;;;;;;1853518;75;21163;-72
2022/07/25 03:00:32;;;;;;;8.45;3.67;;;30.20;99.90;;;;;;1859212;76;21764;-70
2022/07/25 03:03:04;;;;;;;6.28;3.98;;;30.30;99.90;;;;;;1861981;76;21139;-71
2022/07/25 03:05:35;;;;;;;8.58;4.95;;;30.30;99.90;;;;;;1863824;75;21213;-71
2022/07/25 03:08:06;;;;;;;5.47;4.45;;;30.30;99.90;;;;;;1806029;78;21658;-73
2022/07/25 03:10:37;;;;;;;8.45;4.85;;;30.30;99.90;;;;;;1840618;76;21278;-70
2022/07/25 03:13:08;;;;;;;7.62;4.25;;;30.30;99.90;;;;;;1863601;75;21165;-72
2022/07/25 03:15:39;;;;;;;8.88;4.65;;;30.20;99.90;;;;;;1851350;75;21257;-71
2022/07/25 03:18:11;;;;;;;5.25;4.10;;;30.30;99.90;;;;;;1849953;75;21703;-73
2022/07/25 03:20:43;;;;;;;7.30;4.35;;;30.40;99.90;;;;;;1847917;76;21093;-72
2022/07/25 03:23:14;;;;;;;6.45;4.28;;;30.50;99.90;;;;;;1846290;76;21165;-70
2022/07/25 03:25:45;;;;;;;6.12;4.03;;;30.70;99.90;;;;;;1858031;75;22253;-72
2022/07/25 03:28:16;;;;;;;5.37;3.85;;;30.90;99.90;;;;;;1846458;75;21163;-72
2022/07/25 03:30:47;;;;;;;7.37;3.85;;;31.10;99.90;;;;;;1858186;76;21229;-73
2022/07/25 03:33:21;;;;;;;4.92;3.50;;;31.30;99.90;;;;;;1850111;76;21148;-71
2022/07/25 03:35:52;;;;;;;8.00;4.40;;;31.40;99.90;;;;;;1848047;75;21714;-72
2022/07/25 03:38:24;;;;;;;5.75;3.90;;;31.60;99.90;;;;;;1841962;75;21213;-70
2022/07/25 03:40:55;;;;;;;6.53;4.60;;;31.70;99.90;;;;;;1841711;75;21791;-70
2022/07/25 03:43:31;;;;;;;8.65;4.65;;;31.60;99.90;;;;;;1783931;79;21524;-70
2022/07/25 03:46:02;;;;;;;8.03;4.53;;;31.60;99.90;;;;;;1784138;79;21192;-71
2022/07/25 03:48:33;;;;;;;8.15;4.92;;;31.60;99.90;;;;;;1858110;75;21217;-71
2022/07/25 03:51:04;;;;;;;9.43;5.17;;;31.60;99.90;;;;;;1860243;75;21741;-73
2022/07/25 03:54:01;;;;;;;9.43;5.47;;;31.60;98.60;;;;;;1851318;75;21202;-72
2022/07/25 03:56:28;;;;;;;10.78;5.33;;;31.60;98.90;;;;;;1919460;73;21481;-71
2022/07/25 03:58:59;;;;;;;9.55;5.80;;;31.40;99.00;;;;;;1928377;72;21736;-73
2022/07/25 04:01:30;;;;;;;9.08;5.45;;;31.30;99.00;;;;;;1931876;72;21160;-73
2022/07/25 04:04:01;;;;;;;8.80;5.20;;;31.10;99.30;;;;;;1908117;73;21499;-73
2022/07/25 04:06:33;;;;;;;8.40;5.67;;;31.10;99.60;;;;;;1918078;73;21164;-73
2022/07/25 04:09:04;;;;;;;7.95;4.62;;;31.00;99.90;;;;;;1906954;73;21374;-71
2022/07/25 04:11:37;;;;;;;6.53;4.50;;;30.90;99.90;;;;;;1925797;73;21210;-72
2022/07/25 04:14:08;;;;;;;6.70;4.22;;;30.90;99.90;;;;;;1929862;73;21685;-71
2022/07/25 04:16:39;;;;;;;6.08;4.20;;;30.80;99.90;;;;;;1893363;73;21167;-71
2022/07/25 04:19:11;;;;;;;7.80;4.37;;;30.80;99.70;;;;;;1875714;75;21081;-73
2022/07/25 04:21:42;;;;;;;8.63;4.70;;;30.80;99.90;;;;;;1881041;74;21162;-72
2022/07/25 04:24:13;;;;;;;6.85;4.33;;;30.80;99.80;;;;;;1890324;74;21530;-72
2022/07/25 04:26:46;;;;;;;5.70;4.45;;;30.90;99.80;;;;;;1919566;73;21117;-72
2022/07/25 04:29:17;;;;;;;8.45;4.55;;;31.00;99.50;;;;;;1892679;74;21087;-72
2022/07/25 04:31:49;;;;;;;6.20;4.10;;;31.00;99.40;;;;;;1862423;75;21347;-72
2022/07/25 04:34:20;;;;;;;8.55;4.35;;;31.00;99.50;;;;;;1850504;76;21555;-72
2022/07/25 04:36:51;;;;;;;7.42;4.25;;;31.00;99.30;;;;;;1912167;73;21188;-73
2022/07/25 04:39:21;;;;;;;7.42;4.28;;;30.90;99.50;;;;;;1944488;73;21134;-73
2022/07/25 04:41:52;;;;;;;6.55;4.28;;;30.90;99.50;;;;;;1902960;73;21112;-72
2022/07/25 04:44:23;;;;;;;6.80;3.80;;;30.80;99.80;;;;;;1924460;72;21134;-73
2022/07/25 04:46:54;;;;;;;7.15;3.95;;;30.80;99.90;;;;;;1923222;73;21650;-72
2022/07/25 04:49:26;;;;;;;7.95;4.28;;;30.80;99.80;;;;;;1909107;73;22385;-73
2022/07/25 04:51:56;;;;;;;6.30;4.03;;;30.70;99.80;;;;;;1931956;73;21673;-72
2022/07/25 04:54:28;;;;;;;9.18;4.75;;;30.80;99.40;;;;;;1892996;73;21750;-70
2022/07/25 04:57:03;;;;;;;9.13;4.55;;;30.80;99.50;;;;;;1891608;73;21201;-72
2022/07/25 04:59:34;;;;;;;5.37;4.08;;;30.70;99.50;;;;;;1926720;73;21077;-71
2022/07/25 05:02:05;;;;;;;10.05;4.25;;;30.90;99.10;;;;;;1903291;73;21167;-70
2022/07/25 05:04:37;;;;;;;7.75;4.80;;;31.00;99.10;;;;;;1903092;73;21541;-71
2022/07/25 05:07:09;;;;;;;8.35;3.77;;;31.30;99.20;;;;;;1878563;74;21110;-71
2022/07/25 05:09:40;;;;;;;6.08;3.17;;;31.50;97.60;;;;;;1874588;74;21224;-71
2022/07/25 05:12:12;;;;;;;5.45;3.30;;;31.70;96.80;;;;;;1890804;74;21154;-72
2022/07/25 05:14:43;;;;;;;6.20;3.90;;;31.70;96.40;;;;;;1904329;74;21067;-71
2022/07/25 05:17:14;;;;;;;6.85;3.75;;;31.70;96.90;;;;;;1892119;74;21131;-72
2022/07/25 05:19:45;;;;;;;4.83;3.17;;;31.60;96.90;;;;;;1932730;73;21161;-72
2022/07/25 05:22:21;;;;;;;4.22;2.62;;;31.60;96.50;;;;;;1908243;73;21126;-73
2022/07/25 05:24:49;;;;;;;3.75;2.33;;;31.50;96.00;;;;;;1909209;73;21248;-71
2022/07/25 05:27:20;;;;;;;4.30;2.75;;;31.50;95.50;;;;;;1929558;73;21183;-71
2022/07/25 05:29:51;;;;;;;4.70;2.25;;;31.60;95.90;;;;;;1918054;72;21585;-73
2022/07/25 05:32:22;;;;;;;3.42;1.80;;;31.60;94.70;;;;;;1896148;74;21196;-72
2022/07/25 05:34:54;;;;;;;3.27;2.10;;;31.80;93.70;;;;;;1894425;73;21644;-72
2022/07/25 05:37:25;;;;;;;3.25;2.15;;;32.10;93.00;;;;;;1913340;73;21136;-71
2022/07/25 05:39:56;;;;;;;3.12;1.92;;;32.30;92.30;;;;;;1935510;73;21625;-72
2022/07/25 05:42:27;;;;;;;6.10;2.77;;;32.50;91.00;;;;;;1911494;73;21231;-72
2022/07/25 05:44:58;;;;;;;3.98;2.52;;;32.60;90.70;;;;;;1914874;73;21173;-72
2022/07/25 05:47:31;;;;;;;3.27;2.40;;;32.80;93.50;;;;;;1897867;73;21677;-71
2022/07/25 05:50:03;;;;;;;5.97;2.33;;;33.80;98.10;;;;;;1901103;74;21693;-71
2022/07/25 05:52:33;;;;;;;4.05;1.98;;;33.20;91.70;;;;;;1891344;74;21164;-71
2022/07/25 05:55:05;;;;;;;3.58;2.30;;;33.30;88.90;;;;;;1902200;73;21189;-71
2022/07/25 05:57:36;;;;;;;3.52;2.20;;;33.30;91.10;;;;;;1881071;74;21626;-71
2022/07/25 06:00:11;;;;;;;6.58;2.65;;;33.30;91.40;;;;;;1907314;73;21553;-72
2022/07/25 06:02:42;;;;;;;3.83;2.77;;;33.30;89.40;;;;;;1916211;72;21199;-72
2022/07/25 06:05:14;;;;;;;2.98;2.12;;;33.40;90.10;;;;;;1919556;73;21746;-71
2022/07/25 06:07:45;;;;;;;4.08;2.15;;;33.40;90.00;;;;;;1905725;73;21148;-71
2022/07/25 06:10:16;;;;;;;3.42;2.05;;;33.40;91.10;;;;;;1908228;73;21064;-71
2022/07/25 06:12:47;;;;;;;4.85;2.30;;;33.40;88.90;;;;;;1913982;73;21187;-71
2022/07/25 06:15:18;;;;;;;2.87;2.20;;;33.40;90.00;;;;;;1878071;75;21630;-72
2022/07/25 06:17:50;;;;;;;3.22;2.20;;;33.40;90.00;;;;;;1878216;74;21461;-72
2022/07/25 06:20:22;;;;;;;4.87;2.65;;;33.40;92.20;;;;;;1862863;75;21222;-72
2022/07/25 06:22:53;;;;;;;2.80;2.20;;;33.40;89.10;;;;;;1890453;74;21158;-72
2022/07/25 06:25:24;;;;;;;3.62;2.62;;;33.50;88.80;;;;;;1900329;73;21123;-72
2022/07/25 06:27:55;;;;;;;3.83;2.55;;;33.50;88.80;;;;;;1900073;73;21546;-71
2022/07/25 06:30:26;;;;;;;4.75;2.77;;;33.50;90.40;;;;;;1935033;72;21208;-71
2022/07/25 06:32:57;;;;;;;32.98;4.97;;;33.40;89.00;;;;;;1906717;73;21267;-70
2022/07/25 06:35:28;;;;;;;19.35;3.52;;;33.50;88.80;;;;;;1901108;73;21599;-71
2022/07/25 06:37:59;;;;;;;2.92;2.17;;;33.50;88.80;;;;;;1912448;72;21631;-72
2022/07/25 06:40:31;;;;;;;3.12;2.35;;;33.40;89.10;;;;;;1894498;74;21168;-72
2022/07/25 06:43:01;;;;;;;3.20;2.08;;;33.40;90.00;;;;;;1930545;72;21197;-72
2022/07/25 06:45:32;;;;;;;3.85;2.30;;;33.30;91.10;;;;;;1902016;74;21138;-71
2022/07/25 06:48:04;;;;;;;4.08;2.60;;;33.40;91.30;;;;;;1930023;73;22446;-70
2022/07/25 06:50:35;;;;;;;4.60;2.55;;;33.30;90.40;;;;;;1889457;74;21109;-70
2022/07/25 06:53:06;;;;;;;2.30;1.98;;;33.20;90.50;;;;;;1893339;74;21138;-70
2022/07/25 06:55:37;;;;;;;3.10;2.10;;;33.10;90.60;;;;;;1863503;75;21781;-70
2022/07/25 06:58:08;;;;;;;3.52;2.22;;;33.00;91.40;;;;;;1902194;73;21215;-71
2022/07/25 07:00:39;;;;;;;4.20;2.50;;;32.90;91.70;;;;;;1876414;75;21253;-71
2022/07/25 07:03:10;;;;;;;4.20;2.20;;;33.00;91.50;;;;;;1866710;75;21188;-72
2022/07/25 07:05:41;;;;;;;2.70;2.10;;;33.00;91.20;;;;;;1872466;75;21230;-71
2022/07/25 07:08:12;;;;;;;3.45;2.42;;;33.00;91.30;;;;;;1897067;74;21118;-71
2022/07/25 07:10:43;;;;;;;3.87;2.50;;;33.00;90.60;;;;;;1895540;73;21173;-70
2022/07/25 07:13:17;;;;;;;3.50;2.40;;;33.00;90.50;;;;;;1893604;74;21223;-72
2022/07/25 07:15:49;;;;;;;4.20;2.80;;;33.00;90.80;;;;;;1867339;75;21119;-70
2022/07/25 07:18:21;;;;;;;3.55;2.33;;;32.90;90.90;;;;;;1860162;76;21220;-71
2022/07/25 07:20:52;;;;;;;3.62;2.52;;;32.80;90.50;;;;;;1857812;75;21256;-71
2022/07/25 07:23:23;;;;;;;3.37;2.42;;;32.80;90.80;;;;;;1869151;75;21106;-71
2022/07/25 07:25:55;;;;;;;13.95;7.75;;;32.70;90.80;;;;;;1867154;75;22870;-70
2022/07/25 07:28:27;;;;;;;7.58;4.55;;;32.70;90.90;;;;;;1844497;76;21543;-71
2022/07/25 07:30:57;;;;;;;4.15;2.62;;;32.70;91.00;;;;;;1872905;75;21305;-71
2022/07/25 07:33:32;;;;;;;3.05;2.50;;;32.80;90.90;;;;;;1867136;74;21203;-70
2022/07/25 07:36:03;;;;;;;6.42;2.60;;;32.90;92.10;;;;;;1888989;74;21610;-71
2022/07/25 07:38:35;;;;;;;4.95;2.90;;;33.00;91.30;;;;;;1861286;75;21651;-71
2022/07/25 07:41:06;;;;;;;3.50;2.65;;;33.00;90.40;;;;;;1899367;73;21097;-72
2022/07/25 07:43:37;;;;;;;3.05;2.25;;;33.00;90.70;;;;;;1862974;75;21132;-70
2022/07/25 07:46:08;;;;;;;3.40;2.45;;;33.10;90.30;;;;;;1860638;75;21638;-71
2022/07/25 07:48:39;;;;;;;3.98;2.60;;;33.10;90.00;;;;;;1887319;74;21152;-71
2022/07/25 07:51:11;;;;;;;5.22;3.83;;;33.00;90.60;;;;;;1927742;72;21151;-71
2022/07/25 07:56:15;;;;;;;3.10;1.95;;;33.00;89.30;;;;;;1862667;75;21081;-69
2022/07/25 07:58:46;;;;;;;4.05;2.05;;;33.10;88.60;;;;;;1899081;74;21200;-70
2022/07/25 08:01:17;;;;;;;5.75;2.47;;;33.10;88.00;;;;;;1910666;74;21085;-69
2022/07/25 08:03:49;;;;;;;4.78;2.50;;;33.10;90.10;;;;;;1884585;74;21659;-70
2022/07/25 08:06:20;;;;;;;2.87;2.30;;;33.10;89.00;;;;;;1872559;75;21140;-69
2022/07/25 08:08:55;;;;;;;4.42;2.60;;;33.10;89.80;;;;;;1881312;75;22342;-70
2022/07/25 08:11:26;;;;;;;2.83;2.00;;;33.00;90.20;;;;;;1852494;75;21141;-69
2022/07/25 08:13:57;;;;;;;3.25;2.30;;;32.90;89.00;;;;;;1907116;74;21201;-70
2022/07/25 08:16:27;;;;;;;5.22;2.42;;;32.80;88.90;;;;;;1895367;73;21159;-69
2022/07/25 08:19:01;;;;;;;4.10;2.12;;;32.80;89.40;;;;;;1918525;74;21205;-71
2022/07/25 08:21:31;;;;;;;4.03;2.60;;;32.70;89.60;;;;;;1904293;73;21602;-69
2022/07/25 08:24:02;;;;;;;4.00;2.50;;;32.70;90.30;;;;;;1902129;73;21189;-71
2022/07/25 08:26:35;;;;;;;3.95;2.70;;;32.70;90.40;;;;;;1917977;73;21536;-73
2022/07/25 08:29:06;;;;;;;4.05;2.40;;;32.80;90.60;;;;;;1905331;74;21164;-71
2022/07/25 08:31:38;;;;;;;5.53;3.25;;;32.90;90.50;;;;;;1900830;74;21524;-72
2022/07/25 08:34:10;;;;;;;3.75;2.67;;;32.90;90.70;;;;;;1916141;73;21674;-72
2022/07/25 08:36:41;;;;;;;3.37;2.72;;;32.90;90.60;;;;;;1907294;74;21196;-72
2022/07/25 08:39:12;;;;;;;4.00;2.75;;;33.00;90.30;;;;;;1859669;76;21738;-72
2022/07/25 08:41:44;;;;;;;4.05;2.67;;;33.00;89.80;;;;;;1901548;73;21121;-72
2022/07/25 08:44:20;;;;;;;4.62;2.80;;;33.00;89.40;;;;;;1882702;74;21076;-72
2022/07/25 08:46:51;;;;;;;5.00;3.75;;;32.90;88.30;;;;;;1887858;74;21408;-72
2022/07/25 08:49:22;;;;;;;5.08;2.65;;;32.90;89.10;;;;;;1854219;75;21182;-72
2022/07/25 08:51:55;;;;;;;3.65;2.50;;;32.90;89.00;;;;;;1897037;74;21175;-70
2022/07/25 08:54:26;;;;;;;6.17;3.00;;;32.80;88.90;;;;;;1912241;74;21643;-71
2022/07/25 08:56:57;;;;;;;3.33;2.80;;;32.80;90.00;;;;;;1893426;74;21760;-70
2022/07/25 08:59:30;;;;;;;4.22;2.42;;;32.70;90.10;;;;;;1904677;74;21540;-71
2022/07/25 09:02:05;;;;;;;4.65;2.75;;;32.80;89.90;;;;;;1867369;75;21202;-71
2022/07/25 09:04:34;;;;;;;4.95;2.60;;;32.80;89.80;;;;;;1902814;74;21472;-71
2022/07/25 09:07:06;;;;;;;6.40;2.85;;;32.80;90.10;;;;;;1889161;74;21625;-72
2022/07/25 09:09:39;;;;;;;4.22;2.60;;;32.70;89.80;;;;;;1892789;75;21171;-72
2022/07/25 09:12:10;;;;;;;2.95;2.08;;;32.70;90.40;;;;;;1903116;74;21512;-71
2022/07/25 09:14:43;;;;;;;11.83;2.75;;;32.60;90.20;;;;;;1902431;74;21604;-71
2022/07/25 09:17:14;;;;;;;3.42;2.25;;;32.60;90.20;;;;;;1895356;74;21676;-71
2022/07/25 09:19:49;;;;;;;3.25;2.20;;;32.60;90.20;;;;;;1885797;74;21139;-71
2022/07/25 09:22:20;;;;;;;4.28;2.67;;;32.60;90.30;;;;;;1886046;74;21564;-71
2022/07/25 09:24:51;;;;;;;5.05;2.47;;;32.60;90.10;;;;;;1847627;76;21225;-72
2022/07/25 09:27:22;;;;;;;3.25;2.37;;;32.70;90.80;;;;;;1820940;77;21222;-70
2022/07/25 09:29:53;;;;;;;5.05;2.47;;;32.70;90.00;;;;;;1871933;74;21092;-70
2022/07/25 09:32:24;;;;;;;3.37;2.15;;;32.70;90.20;;;;;;1896593;74;21150;-70
2022/07/25 09:34:55;;;;;;;5.50;2.77;;;32.80;91.40;;;;;;1897812;75;21092;-71
2022/07/25 09:37:27;;;;;;;3.95;2.33;;;32.70;90.10;;;;;;1892387;74;21567;-69
2022/07/25 09:39:59;;;;;;;3.75;2.75;;;32.70;90.30;;;;;;1877246;75;21530;-71
2022/07/25 09:42:33;;;;;;;3.87;2.52;;;32.70;90.50;;;;;;1878579;75;21194;-69
2022/07/25 09:45:06;;;;;;;5.60;2.58;;;32.70;90.40;;;;;;1893998;74;21194;-71
2022/07/25 09:47:40;;;;;;;4.37;2.42;;;32.70;90.50;;;;;;1885046;74;21659;-71
2022/07/25 09:50:15;;;;;;;4.47;2.50;;;32.60;90.40;;;;;;1875536;74;21151;-71
2022/07/25 09:52:44;;;;;;;3.37;2.22;;;32.60;90.00;;;;;;1883082;74;21217;-71
2022/07/25 09:55:15;;;;;;;4.65;3.10;;;32.60;90.40;;;;;;1904569;74;21166;-71
2022/07/25 09:57:52;;;;;;;3.55;2.37;;;32.60;90.40;;;;;;1885177;74;21523;-70
2022/07/25 10:00:30;;;;;;;4.75;2.30;;;32.60;90.50;;;;;;1902324;74;21138;-70
2022/07/25 10:03:06;;;;;;;4.45;2.80;;;32.60;90.50;;;;;;1904962;75;21138;-70
2022/07/25 10:05:46;;;;;;;4.28;2.45;;;32.60;90.30;;;;;;1894657;75;21467;-71
2022/07/25 10:08:23;;;;;;;9.40;2.47;;;32.60;90.30;;;;;;1833569;75;21195;-69
2022/07/25 10:10:54;;;;;;;4.72;3.00;;;32.60;90.50;;;;;;1849034;75;21171;-71
2022/07/25 10:13:27;;;;;;;3.60;2.60;;;32.50;90.60;;;;;;1824777;78;21235;-72
2022/07/25 10:15:59;;;;;;;3.92;2.70;;;32.50;90.80;;;;;;1893777;74;21583;-70
2022/07/25 10:18:32;;;;;;;5.00;2.40;;;32.40;90.70;;;;;;1895899;74;22094;-71
2022/07/25 10:21:08;;;;;;;3.77;2.40;;;32.40;90.90;;;;;;1902280;74;21084;-70
2022/07/25 10:23:42;;;;;;;6.28;2.55;;;32.40;90.90;;;;;;1885919;74;21208;-71
2022/07/25 10:26:18;;;;;;;4.70;2.65;;;32.40;91.00;;;;;;1894284;74;21265;-68
2022/07/25 10:28:50;;;;;;;6.12;3.50;;;32.40;91.20;;;;;;1867695;74;21615;-71
2022/07/25 10:31:23;;;;;;;3.80;2.60;;;32.40;91.30;;;;;;1876805;75;21140;-70
2022/07/25 10:33:57;;;;;;;5.53;2.87;;;32.40;91.90;;;;;;1896277;75;22510;-72
2022/07/25 10:36:32;;;;;;;4.20;2.83;;;32.30;91.50;;;;;;1883127;75;21168;-71
2022/07/25 10:39:02;;;;;;;4.20;2.42;;;32.30;91.20;;;;;;1877921;74;21560;-70
2022/07/25 10:41:34;;;;;;;4.28;2.77;;;32.30;91.30;;;;;;1889641;75;21851;-70
2022/07/25 10:44:07;;;;;;;4.00;2.75;;;32.30;91.30;;;;;;1868828;76;21075;-70
2022/07/25 10:46:39;;;;;;;6.28;4.10;;;32.20;91.60;;;;;;1885987;76;21129;-69
2022/07/25 10:49:12;;;;;;;5.47;2.60;;;32.20;91.40;;;;;;1886150;75;21650;-70
2022/07/25 10:51:46;;;;;;;3.62;2.15;;;32.20;91.60;;;;;;1884234;74;21701;-71
2022/07/25 10:54:18;;;;;;;5.20;2.85;;;32.10;91.60;;;;;;1892524;74;21621;-70
2022/07/25 10:56:51;;;;;;;4.65;3.00;;;32.10;91.90;;;;;;1884089;75;21095;-70
2022/07/25 10:59:25;;;;;;;5.28;3.50;;;32.10;91.70;;;;;;1909064;75;21123;-70
2022/07/25 11:01:56;;;;;;;6.58;3.12;;;32.10;92.30;;;;;;1897715;75;21214;-70
2022/07/25 11:04:36;;;;;;;4.58;3.17;;;32.10;92.30;;;;;;1885658;75;21081;-71
2022/07/25 11:07:12;;;;;;;6.03;3.55;;;32.00;92.50;;;;;;1881566;75;21154;-68
2022/07/25 11:10:00;;;;;;;7.25;4.60;;;32.00;92.60;;;;;;1876098;75;21084;-69
2022/07/25 11:12:31;;;;;;;6.20;3.85;;;32.00;92.80;;;;;;1883679;74;21100;-69
2022/07/25 11:15:23;;;;;;;6.10;3.52;;;32.00;92.90;;;;;;1877346;75;21123;-70
2022/07/25 11:18:13;;;;;;;4.75;3.17;;;32.00;92.90;;;;;;1894564;75;21149;-70
2022/07/25 11:20:44;;;;;;;4.45;3.33;;;31.90;92.90;;;;;;1866750;75;21151;-69
2022/07/25 11:23:17;;;;;;;5.37;2.90;;;31.90;93.00;;;;;;1891674;75;21132;-69
2022/07/25 11:25:59;;;;;;;8.78;2.98;;;31.90;92.90;;;;;;1891281;75;21068;-69
2022/07/25 11:28:36;;;;;;;4.75;3.15;;;31.80;92.80;;;;;;1902786;75;21761;-70
2022/07/25 11:31:26;;;;;;;5.92;3.22;;;31.80;92.60;;;;;;1877480;74;21519;-70
2022/07/25 11:34:15;;;;;;;4.12;2.92;;;31.80;92.60;;;;;;1882990;74;21153;-70
2022/07/25 11:36:46;;;;;;;3.85;2.95;;;31.80;92.80;;;;;;1885109;75;21067;-71
2022/07/25 11:39:26;;;;;;;4.05;2.70;;;31.80;92.80;;;;;;1868040;74;21170;-71
2022/07/25 11:42:01;;;;;;;4.95;3.30;;;31.80;93.00;;;;;;1899381;74;21133;-79
2022/07/25 11:44:51;;;;;;;5.37;3.20;;;31.70;93.40;;;;;;1889374;74;21240;-78
2022/07/25 11:47:25;;;;;;;8.20;3.50;;;31.70;93.30;;;;;;1878262;75;21656;-76
2022/07/25 11:49:58;;;;;;;5.03;3.12;;;31.70;93.50;;;;;;1893889;75;21093;-79
2022/07/25 11:52:32;;;;;;;6.50;3.58;;;31.70;93.60;;;;;;1892427;75;21101;-78
2022/07/25 11:55:05;;;;;;;7.12;3.55;;;31.60;93.70;;;;;;1884381;75;21187;-80
2022/07/25 11:57:40;;;;;;;6.17;4.10;;;31.60;93.80;;;;;;1878149;74;21182;-78
2022/07/25 12:00:13;;;;;;;8.80;4.47;;;31.60;94.00;;;;;;1899019;74;21141;-79
2022/07/25 12:02:44;;;;;;;5.20;3.50;;;31.50;94.00;;;;;;1884408;73;21276;-80
2022/07/25 12:05:19;;;;;;;6.75;4.03;;;31.50;94.10;;;;;;1887058;74;21119;-79
2022/07/25 12:07:52;;;;;;;7.50;4.00;;;31.50;94.30;;;;;;1863441;75;21222;-79
2022/07/25 12:10:25;;;;;;;6.95;3.62;;;31.50;94.30;;;;;;1902039;73;21139;-80
2022/07/25 12:12:58;;;;;;;5.42;3.70;;;31.40;94.40;;;;;;1859934;75;21407;-79
2022/07/25 12:15:31;;;;;;;5.00;3.67;;;31.50;94.70;;;;;;1857627;75;21151;-79
2022/07/25 12:18:02;;;;;;;7.97;3.58;;;31.40;94.90;;;;;;1902693;74;21748;-79
2022/07/25 12:20:35;;;;;;;5.37;3.12;;;31.40;95.20;;;;;;1898234;74;21610;-77
2022/07/25 12:23:09;;;;;;;5.33;3.00;;;31.30;95.10;;;;;;1865442;74;21229;-79
2022/07/25 12:25:42;;;;;;;6.55;3.42;;;31.20;95.40;;;;;;1905059;74;21661;-79
2022/07/25 12:28:14;;;;;;;6.50;3.55;;;31.20;95.60;;;;;;1888147;74;21164;-79
2022/07/25 12:30:48;;;;;;;7.95;3.80;;;31.10;95.70;;;;;;1888540;74;21155;-78
2022/07/25 12:33:20;;;;;;;4.53;3.12;;;31.00;95.80;;;;;;1913010;73;21125;-78
2022/07/25 12:35:51;;;;;;;6.95;3.15;;;30.90;95.70;;;;;;1875329;75;21184;-78
2022/07/25 12:38:22;;;;;;;8.13;3.60;;;30.90;95.80;;;;;;1892831;74;21579;-79
2022/07/25 12:40:54;;;;;;;4.95;3.15;;;30.80;96.30;;;;;;1844253;77;21571;-79
2022/07/25 12:43:25;;;;;;;5.12;3.20;;;30.80;96.00;;;;;;1853250;76;21253;-80
2022/07/25 12:45:56;;;;;;;5.72;3.15;;;30.70;95.80;;;;;;1877516;75;21213;-79
2022/07/25 12:48:27;;;;;;;7.45;3.22;;;30.70;95.80;;;;;;1858271;76;21722;-78
2022/07/25 12:50:58;;;;;;;5.20;3.05;;;30.70;95.60;;;;;;1894079;74;21662;-79
2022/07/25 12:53:29;;;;;;;5.72;3.30;;;30.60;95.60;;;;;;1895682;74;21177;-79
2022/07/25 12:56:00;;;;;;;6.03;3.08;;;30.60;95.80;;;;;;1879768;75;21143;-79
2022/07/25 12:58:31;;;;;;;6.22;3.45;;;30.50;95.80;;;;;;1926157;73;21166;-80
2022/07/25 13:01:03;;;;;;;7.08;3.40;;;30.50;95.80;;;;;;1902039;74;21143;-79
2022/07/25 13:03:34;;;;;;;6.45;3.80;;;30.50;96.20;;;;;;1866467;76;21226;-79
2022/07/25 13:06:05;;;;;;;7.78;4.15;;;30.40;95.70;;;;;;1815800;78;21113;-79
2022/07/25 13:08:36;;;;;;;6.62;4.00;;;30.40;95.80;;;;;;1850121;77;21203;-79
2022/07/25 13:11:07;;;;;;;6.72;4.15;;;30.40;95.90;;;;;;1818079;77;21503;-79
2022/07/25 13:13:38;;;;;;;6.55;3.62;;;30.40;96.00;;;;;;1892995;74;21101;-78